sensor_id;sensor_type;location;lat;lon;timestamp;P1;durP1;ratioP1;P2;durP2;ratioP2
31808;SDS011;18379;48.208;-1.518;2022-09-09T00:00:14;53.20;;;48.93;;
31808;SDS011;18379;48.208;-1.518;2022-09-09T00:05:19;47.53;;;43.40;;
31808;SDS011;18379;48.208;-1.518;2022-09-09T00:10:46;45.83;;;42.47;;
31808;SDS011;18379;48.208;-1.518;2022-09-09T00:21:35;51.00;;;46.80;;
31808;SDS011;18379;48.208;-1.518;2022-09-09T00:31:48;46.10;;;42.43;;
31808;SDS011;18379;48.208;-1.518;2022-09-09T00:36:52;45.07;;;41.70;;
31808;SDS011;18379;48.208;-1.518;2022-09-09T00:42:09;48.53;;;44.50;;
31808;SDS011;18379;48.208;-1.518;2022-09-09T00:47:30;47.77;;;44.00;;
31808;SDS011;18379;48.208;-1.518;2022-09-09T00:52:46;50.37;;;45.90;;
31808;SDS011;18379;48.208;-1.518;2022-09-09T00:58:00;50.20;;;45.67;;
31808;SDS011;18379;48.208;-1.518;2022-09-09T01:13:39;48.80;;;44.80;;
31808;SDS011;18379;48.208;-1.518;2022-09-09T01:18:46;45.97;;;42.27;;
31808;SDS011;18379;48.208;-1.518;2022-09-09T01:29:09;47.07;;;43.60;;
31808;SDS011;18379;48.208;-1.518;2022-09-09T01:34:13;44.73;;;41.63;;
31808;SDS011;18379;48.208;-1.518;2022-09-09T01:39:15;45.87;;;42.23;;
31808;SDS011;18379;48.208;-1.518;2022-09-09T01:44:16;45.27;;;41.57;;
31808;SDS011;18379;48.208;-1.518;2022-09-09T01:49:18;45.30;;;42.03;;
31808;SDS011;18379;48.208;-1.518;2022-09-09T01:54:20;45.73;;;42.23;;
31808;SDS011;18379;48.208;-1.518;2022-09-09T02:04:36;53.07;;;48.23;;
31808;SDS011;18379;48.208;-1.518;2022-09-09T02:09:38;49.97;;;46.00;;
31808;SDS011;18379;48.208;-1.518;2022-09-09T02:14:48;45.43;;;41.60;;
31808;SDS011;18379;48.208;-1.518;2022-09-09T02:20:04;48.00;;;44.50;;
31808;SDS011;18379;48.208;-1.518;2022-09-09T02:25:08;51.83;;;47.67;;
31808;SDS011;18379;48.208;-1.518;2022-09-09T02:30:12;47.10;;;43.00;;
31808;SDS011;18379;48.208;-1.518;2022-09-09T02:35:14;44.77;;;41.27;;
31808;SDS011;18379;48.208;-1.518;2022-09-09T02:40:24;46.27;;;42.23;;
31808;SDS011;18379;48.208;-1.518;2022-09-09T02:45:25;47.30;;;43.27;;
31808;SDS011;18379;48.208;-1.518;2022-09-09T02:50:35;47.40;;;43.77;;
31808;SDS011;18379;48.208;-1.518;2022-09-09T02:56:01;44.63;;;41.33;;
31808;SDS011;18379;48.208;-1.518;2022-09-09T03:01:06;48.07;;;44.47;;
31808;SDS011;18379;48.208;-1.518;2022-09-09T03:06:08;46.47;;;42.80;;
31808;SDS011;18379;48.208;-1.518;2022-09-09T03:11:11;44.80;;;41.33;;
31808;SDS011;18379;48.208;-1.518;2022-09-09T03:16:14;43.70;;;40.43;;
31808;SDS011;18379;48.208;-1.518;2022-09-09T03:21:15;44.33;;;41.23;;
31808;SDS011;18379;48.208;-1.518;2022-09-09T03:26:16;43.87;;;40.90;;
31808;SDS011;18379;48.208;-1.518;2022-09-09T03:31:17;43.63;;;40.73;;
31808;SDS011;18379;48.208;-1.518;2022-09-09T03:36:18;44.57;;;41.50;;
31808;SDS011;18379;48.208;-1.518;2022-09-09T03:41:19;43.77;;;40.93;;
31808;SDS011;18379;48.208;-1.518;2022-09-09T03:46:20;44.80;;;41.40;;
31808;SDS011;18379;48.208;-1.518;2022-09-09T03:51:22;43.80;;;40.73;;
31808;SDS011;18379;48.208;-1.518;2022-09-09T03:56:23;44.43;;;41.20;;
31808;SDS011;18379;48.208;-1.518;2022-09-09T04:01:24;44.80;;;41.73;;
31808;SDS011;18379;48.208;-1.518;2022-09-09T04:06:25;46.03;;;42.80;;
31808;SDS011;18379;48.208;-1.518;2022-09-09T04:11:26;45.67;;;42.43;;
31808;SDS011;18379;48.208;-1.518;2022-09-09T04:16:27;46.97;;;43.30;;
31808;SDS011;18379;48.208;-1.518;2022-09-09T04:21:28;48.80;;;44.77;;
31808;SDS011;18379;48.208;-1.518;2022-09-09T04:26:29;47.60;;;43.83;;
31808;SDS011;18379;48.208;-1.518;2022-09-09T04:31:30;46.67;;;43.30;;
31808;SDS011;18379;48.208;-1.518;2022-09-09T04:36:31;46.83;;;43.47;;
31808;SDS011;18379;48.208;-1.518;2022-09-09T04:41:33;47.07;;;43.63;;
31808;SDS011;18379;48.208;-1.518;2022-09-09T04:46:37;46.60;;;43.17;;
31808;SDS011;18379;48.208;-1.518;2022-09-09T04:51:38;47.67;;;43.83;;
31808;SDS011;18379;48.208;-1.518;2022-09-09T04:56:39;47.40;;;44.07;;
31808;SDS011;18379;48.208;-1.518;2022-09-09T05:01:42;44.00;;;41.00;;
31808;SDS011;18379;48.208;-1.518;2022-09-09T05:06:43;47.17;;;43.78;;
31808;SDS011;18379;48.208;-1.518;2022-09-09T05:11:43;44.43;;;41.03;;
31808;SDS011;18379;48.208;-1.518;2022-09-09T05:16:44;43.80;;;40.77;;
31808;SDS011;18379;48.208;-1.518;2022-09-09T05:21:47;44.93;;;41.60;;
31808;SDS011;18379;48.208;-1.518;2022-09-09T05:26:48;43.60;;;40.47;;
31808;SDS011;18379;48.208;-1.518;2022-09-09T05:31:49;44.00;;;40.97;;
31808;SDS011;18379;48.208;-1.518;2022-09-09T05:36:49;44.87;;;41.67;;
31808;SDS011;18379;48.208;-1.518;2022-09-09T05:41:52;44.73;;;41.13;;
31808;SDS011;18379;48.208;-1.518;2022-09-09T05:46:53;44.57;;;41.27;;
31808;SDS011;18379;48.208;-1.518;2022-09-09T05:51:54;45.23;;;41.83;;
31808;SDS011;18379;48.208;-1.518;2022-09-09T05:56:55;45.60;;;42.43;;
31808;SDS011;18379;48.208;-1.518;2022-09-09T06:01:56;47.03;;;43.37;;
31808;SDS011;18379;48.208;-1.518;2022-09-09T06:06:59;48.67;;;44.83;;
31808;SDS011;18379;48.208;-1.518;2022-09-09T06:11:59;53.63;;;49.30;;
31808;SDS011;18379;48.208;-1.518;2022-09-09T06:17:00;45.20;;;41.90;;
31808;SDS011;18379;48.208;-1.518;2022-09-09T06:22:02;47.80;;;43.87;;
31808;SDS011;18379;48.208;-1.518;2022-09-09T06:27:03;52.23;;;48.20;;
31808;SDS011;18379;48.208;-1.518;2022-09-09T06:32:05;50.67;;;46.77;;
31808;SDS011;18379;48.208;-1.518;2022-09-09T06:37:08;53.20;;;48.77;;
31808;SDS011;18379;48.208;-1.518;2022-09-09T06:42:09;46.27;;;42.47;;
31808;SDS011;18379;48.208;-1.518;2022-09-09T06:47:10;45.80;;;42.23;;
31808;SDS011;18379;48.208;-1.518;2022-09-09T06:52:11;45.90;;;42.33;;
31808;SDS011;18379;48.208;-1.518;2022-09-09T06:57:12;50.97;;;46.80;;
31808;SDS011;18379;48.208;-1.518;2022-09-09T07:02:12;46.73;;;43.10;;
31808;SDS011;18379;48.208;-1.518;2022-09-09T07:07:13;48.23;;;44.40;;
31808;SDS011;18379;48.208;-1.518;2022-09-09T07:12:15;45.37;;;42.10;;
31808;SDS011;18379;48.208;-1.518;2022-09-09T07:17:16;45.40;;;41.63;;
31808;SDS011;18379;48.208;-1.518;2022-09-09T07:22:17;44.63;;;40.93;;
31808;SDS011;18379;48.208;-1.518;2022-09-09T07:27:20;44.83;;;41.23;;
31808;SDS011;18379;48.208;-1.518;2022-09-09T07:32:21;45.13;;;41.43;;
31808;SDS011;18379;48.208;-1.518;2022-09-09T07:37:22;45.27;;;41.53;;
31808;SDS011;18379;48.208;-1.518;2022-09-09T07:42:24;46.70;;;43.27;;
31808;SDS011;18379;48.208;-1.518;2022-09-09T07:47:25;49.80;;;45.77;;
31808;SDS011;18379;48.208;-1.518;2022-09-09T07:52:26;55.63;;;50.87;;
31808;SDS011;18379;48.208;-1.518;2022-09-09T07:57:28;55.53;;;50.77;;
31808;SDS011;18379;48.208;-1.518;2022-09-09T08:02:32;58.67;;;53.60;;
31808;SDS011;18379;48.208;-1.518;2022-09-09T08:07:33;59.43;;;54.60;;
31808;SDS011;18379;48.208;-1.518;2022-09-09T08:12:34;60.40;;;54.57;;
31808;SDS011;18379;48.208;-1.518;2022-09-09T08:17:35;58.17;;;53.70;;
31808;SDS011;18379;48.208;-1.518;2022-09-09T08:22:37;57.47;;;52.50;;
31808;SDS011;18379;48.208;-1.518;2022-09-09T08:27:38;58.83;;;53.93;;
31808;SDS011;18379;48.208;-1.518;2022-09-09T08:32:39;59.57;;;54.73;;
31808;SDS011;18379;48.208;-1.518;2022-09-09T08:37:41;58.37;;;53.27;;
31808;SDS011;18379;48.208;-1.518;2022-09-09T08:42:41;52.53;;;48.40;;
31808;SDS011;18379;48.208;-1.518;2022-09-09T08:47:52;46.00;;;42.67;;
31808;SDS011;18379;48.208;-1.518;2022-09-09T08:53:21;47.97;;;44.53;;
31808;SDS011;18379;48.208;-1.518;2022-09-09T08:58:27;54.70;;;49.77;;
31808;SDS011;18379;48.208;-1.518;2022-09-09T09:14:00;49.73;;;45.90;;
31808;SDS011;18379;48.208;-1.518;2022-09-09T09:19:07;59.73;;;54.53;;
31808;SDS011;18379;48.208;-1.518;2022-09-09T09:25:00;52.93;;;48.83;;
31808;SDS011;18379;48.208;-1.518;2022-09-09T09:29:49;47.27;;;43.50;;
31808;SDS011;18379;48.208;-1.518;2022-09-09T09:34:55;46.57;;;42.87;;
31808;SDS011;18379;48.208;-1.518;2022-09-09T09:40:10;56.87;;;52.60;;
31808;SDS011;18379;48.208;-1.518;2022-09-09T09:45:16;52.20;;;48.23;;
31808;SDS011;18379;48.208;-1.518;2022-09-09T09:50:34;60.40;;;55.17;;
31808;SDS011;18379;48.208;-1.518;2022-09-09T09:55:35;58.93;;;54.53;;
31808;SDS011;18379;48.208;-1.518;2022-09-09T10:00:49;46.03;;;42.80;;
31808;SDS011;18379;48.208;-1.518;2022-09-09T10:05:51;46.47;;;43.00;;
31808;SDS011;18379;48.208;-1.518;2022-09-09T10:16:19;59.93;;;55.13;;
31808;SDS011;18379;48.208;-1.518;2022-09-09T10:27:05;58.07;;;53.70;;
31808;SDS011;18379;48.208;-1.518;2022-09-09T10:42:53;46.87;;;43.53;;
31808;SDS011;18379;48.208;-1.518;2022-09-09T10:48:19;58.70;;;54.10;;
31808;SDS011;18379;48.208;-1.518;2022-09-09T10:53:44;60.27;;;55.67;;
31808;SDS011;18379;48.208;-1.518;2022-09-09T11:04:49;46.57;;;43.33;;
31808;SDS011;18379;48.208;-1.518;2022-09-09T11:09:59;55.30;;;51.43;;
31808;SDS011;18379;48.208;-1.518;2022-09-09T11:15:08;59.33;;;54.73;;
31808;SDS011;18379;48.208;-1.518;2022-09-09T11:20:28;58.27;;;53.73;;
31808;SDS011;18379;48.208;-1.518;2022-09-09T11:25:33;60.00;;;55.33;;
31808;SDS011;18379;48.208;-1.518;2022-09-09T11:41:07;59.50;;;55.20;;
31808;SDS011;18379;48.208;-1.518;2022-09-09T11:46:10;59.13;;;55.23;;
31808;SDS011;18379;48.208;-1.518;2022-09-09T11:51:13;55.13;;;51.33;;
31808;SDS011;18379;48.208;-1.518;2022-09-09T12:06:41;60.70;;;56.27;;
31808;SDS011;18379;48.208;-1.518;2022-09-09T12:11:48;47.27;;;44.00;;
31808;SDS011;18379;48.208;-1.518;2022-09-09T12:16:48;47.53;;;44.47;;
31808;SDS011;18379;48.208;-1.518;2022-09-09T12:27:14;60.70;;;56.30;;
31808;SDS011;18379;48.208;-1.518;2022-09-09T12:32:25;49.17;;;45.87;;
31808;SDS011;18379;48.208;-1.518;2022-09-09T12:37:30;52.07;;;48.57;;
31808;SDS011;18379;48.208;-1.518;2022-09-09T12:42:46;46.70;;;43.83;;
31808;SDS011;18379;48.208;-1.518;2022-09-09T12:47:57;46.97;;;43.97;;
31808;SDS011;18379;48.208;-1.518;2022-09-09T12:53:13;61.90;;;57.57;;
31808;SDS011;18379;48.208;-1.518;2022-09-09T12:58:26;52.57;;;49.17;;
31808;SDS011;18379;48.208;-1.518;2022-09-09T13:03:28;58.00;;;53.83;;
31808;SDS011;18379;48.208;-1.518;2022-09-09T13:08:29;58.47;;;54.17;;
31808;SDS011;18379;48.208;-1.518;2022-09-09T13:13:33;60.60;;;56.50;;
31808;SDS011;18379;48.208;-1.518;2022-09-09T13:18:37;60.63;;;56.03;;
31808;SDS011;18379;48.208;-1.518;2022-09-09T13:23:41;62.50;;;57.50;;
31808;SDS011;18379;48.208;-1.518;2022-09-09T13:28:41;59.13;;;54.20;;
31808;SDS011;18379;48.208;-1.518;2022-09-09T13:33:42;54.40;;;50.67;;
31808;SDS011;18379;48.208;-1.518;2022-09-09T13:38:53;52.67;;;48.87;;
31808;SDS011;18379;48.208;-1.518;2022-09-09T13:43:56;50.50;;;46.67;;
31808;SDS011;18379;48.208;-1.518;2022-09-09T13:48:58;55.07;;;50.90;;
31808;SDS011;18379;48.208;-1.518;2022-09-09T13:54:00;60.47;;;55.93;;
31808;SDS011;18379;48.208;-1.518;2022-09-09T13:59:02;58.80;;;54.60;;
31808;SDS011;18379;48.208;-1.518;2022-09-09T14:04:04;60.20;;;55.67;;
31808;SDS011;18379;48.208;-1.518;2022-09-09T14:09:07;60.87;;;56.47;;
31808;SDS011;18379;48.208;-1.518;2022-09-09T14:14:10;60.37;;;55.83;;
31808;SDS011;18379;48.208;-1.518;2022-09-09T14:19:11;61.07;;;56.47;;
31808;SDS011;18379;48.208;-1.518;2022-09-09T14:24:13;52.63;;;49.27;;
31808;SDS011;18379;48.208;-1.518;2022-09-09T14:29:14;49.50;;;46.00;;
31808;SDS011;18379;48.208;-1.518;2022-09-09T14:34:15;45.17;;;42.37;;
31808;SDS011;18379;48.208;-1.518;2022-09-09T14:39:16;48.90;;;46.00;;
31808;SDS011;18379;48.208;-1.518;2022-09-09T14:44:17;45.03;;;42.30;;
31808;SDS011;18379;48.208;-1.518;2022-09-09T14:49:18;44.90;;;42.30;;
31808;SDS011;18379;48.208;-1.518;2022-09-09T14:54:20;44.67;;;42.23;;
31808;SDS011;18379;48.208;-1.518;2022-09-09T14:59:23;44.63;;;42.10;;
31808;SDS011;18379;48.208;-1.518;2022-09-09T15:04:27;53.60;;;50.00;;
31808;SDS011;18379;48.208;-1.518;2022-09-09T15:09:28;56.77;;;52.90;;
31808;SDS011;18379;48.208;-1.518;2022-09-09T15:14:30;56.97;;;52.77;;
31808;SDS011;18379;48.208;-1.518;2022-09-09T15:19:31;55.77;;;51.73;;
31808;SDS011;18379;48.208;-1.518;2022-09-09T15:24:32;54.43;;;50.67;;
31808;SDS011;18379;48.208;-1.518;2022-09-09T15:29:33;58.23;;;54.00;;
31808;SDS011;18379;48.208;-1.518;2022-09-09T15:34:35;59.40;;;55.27;;
31808;SDS011;18379;48.208;-1.518;2022-09-09T15:39:37;60.17;;;55.87;;
31808;SDS011;18379;48.208;-1.518;2022-09-09T15:44:39;59.37;;;55.30;;
31808;SDS011;18379;48.208;-1.518;2022-09-09T15:49:42;60.63;;;56.13;;
31808;SDS011;18379;48.208;-1.518;2022-09-09T15:54:43;56.47;;;52.30;;
31808;SDS011;18379;48.208;-1.518;2022-09-09T15:59:45;55.03;;;51.07;;
31808;SDS011;18379;48.208;-1.518;2022-09-09T16:04:47;46.17;;;43.37;;
31808;SDS011;18379;48.208;-1.518;2022-09-09T16:09:52;45.53;;;42.77;;
31808;SDS011;18379;48.208;-1.518;2022-09-09T16:15:14;47.03;;;44.13;;
31808;SDS011;18379;48.208;-1.518;2022-09-09T16:20:17;45.67;;;42.87;;
31808;SDS011;18379;48.208;-1.518;2022-09-09T16:25:19;46.43;;;43.70;;
31808;SDS011;18379;48.208;-1.518;2022-09-09T16:30:20;45.27;;;42.60;;
31808;SDS011;18379;48.208;-1.518;2022-09-09T16:35:22;45.70;;;43.10;;
31808;SDS011;18379;48.208;-1.518;2022-09-09T16:40:33;52.30;;;48.83;;
31808;SDS011;18379;48.208;-1.518;2022-09-09T16:45:40;47.83;;;44.93;;
31808;SDS011;18379;48.208;-1.518;2022-09-09T16:50:44;47.37;;;44.37;;
31808;SDS011;18379;48.208;-1.518;2022-09-09T16:55:46;46.47;;;43.20;;
31808;SDS011;18379;48.208;-1.518;2022-09-09T17:00:47;45.53;;;42.77;;
31808;SDS011;18379;48.208;-1.518;2022-09-09T17:05:51;45.10;;;42.50;;
31808;SDS011;18379;48.208;-1.518;2022-09-09T17:10:52;45.53;;;42.70;;
31808;SDS011;18379;48.208;-1.518;2022-09-09T17:15:54;46.47;;;43.30;;
31808;SDS011;18379;48.208;-1.518;2022-09-09T17:20:55;45.03;;;42.33;;
31808;SDS011;18379;48.208;-1.518;2022-09-09T17:26:03;61.90;;;57.00;;
31808;SDS011;18379;48.208;-1.518;2022-09-09T17:31:10;47.87;;;44.67;;
31808;SDS011;18379;48.208;-1.518;2022-09-09T17:36:16;47.50;;;44.40;;
31808;SDS011;18379;48.208;-1.518;2022-09-09T17:41:20;44.73;;;42.23;;
31808;SDS011;18379;48.208;-1.518;2022-09-09T17:46:27;46.93;;;44.23;;
31808;SDS011;18379;48.208;-1.518;2022-09-09T17:51:30;46.63;;;43.73;;
31808;SDS011;18379;48.208;-1.518;2022-09-09T17:56:35;48.20;;;44.93;;
31808;SDS011;18379;48.208;-1.518;2022-09-09T18:01:38;48.93;;;45.50;;
31808;SDS011;18379;48.208;-1.518;2022-09-09T18:06:44;47.83;;;44.93;;
31808;SDS011;18379;48.208;-1.518;2022-09-09T18:11:47;44.47;;;41.87;;
31808;SDS011;18379;48.208;-1.518;2022-09-09T18:16:51;45.33;;;42.67;;
31808;SDS011;18379;48.208;-1.518;2022-09-09T18:21:52;45.97;;;43.00;;
31808;SDS011;18379;48.208;-1.518;2022-09-09T18:26:54;45.00;;;42.00;;
31808;SDS011;18379;48.208;-1.518;2022-09-09T18:31:55;44.93;;;42.20;;
31808;SDS011;18379;48.208;-1.518;2022-09-09T18:36:56;45.40;;;42.50;;
31808;SDS011;18379;48.208;-1.518;2022-09-09T18:42:05;47.27;;;44.13;;
31808;SDS011;18379;48.208;-1.518;2022-09-09T18:47:09;50.93;;;47.37;;
31808;SDS011;18379;48.208;-1.518;2022-09-09T18:52:11;47.67;;;44.40;;
31808;SDS011;18379;48.208;-1.518;2022-09-09T18:57:12;50.40;;;47.20;;
31808;SDS011;18379;48.208;-1.518;2022-09-09T19:02:13;48.47;;;45.27;;
31808;SDS011;18379;48.208;-1.518;2022-09-09T19:07:15;47.80;;;44.83;;
31808;SDS011;18379;48.208;-1.518;2022-09-09T19:12:16;49.70;;;46.47;;
31808;SDS011;18379;48.208;-1.518;2022-09-09T19:17:17;44.90;;;42.10;;
31808;SDS011;18379;48.208;-1.518;2022-09-09T19:22:20;44.60;;;41.90;;
31808;SDS011;18379;48.208;-1.518;2022-09-09T19:27:22;45.30;;;42.30;;
31808;SDS011;18379;48.208;-1.518;2022-09-09T19:32:23;44.70;;;41.87;;
31808;SDS011;18379;48.208;-1.518;2022-09-09T19:37:25;44.77;;;42.07;;
31808;SDS011;18379;48.208;-1.518;2022-09-09T19:42:26;44.80;;;41.97;;
31808;SDS011;18379;48.208;-1.518;2022-09-09T19:47:30;45.60;;;42.70;;
31808;SDS011;18379;48.208;-1.518;2022-09-09T19:52:32;47.20;;;44.03;;
31808;SDS011;18379;48.208;-1.518;2022-09-09T19:57:33;47.43;;;44.13;;
31808;SDS011;18379;48.208;-1.518;2022-09-09T20:02:36;47.60;;;44.30;;
31808;SDS011;18379;48.208;-1.518;2022-09-09T20:07:37;47.80;;;44.70;;
31808;SDS011;18379;48.208;-1.518;2022-09-09T20:12:38;49.20;;;45.90;;
31808;SDS011;18379;48.208;-1.518;2022-09-09T20:17:39;47.23;;;44.00;;
31808;SDS011;18379;48.208;-1.518;2022-09-09T20:22:41;46.77;;;43.77;;
31808;SDS011;18379;48.208;-1.518;2022-09-09T20:27:42;46.63;;;43.83;;
31808;SDS011;18379;48.208;-1.518;2022-09-09T20:32:44;47.30;;;44.20;;
31808;SDS011;18379;48.208;-1.518;2022-09-09T20:37:47;46.90;;;44.00;;
31808;SDS011;18379;48.208;-1.518;2022-09-09T20:42:47;45.43;;;42.60;;
31808;SDS011;18379;48.208;-1.518;2022-09-09T20:47:50;44.90;;;42.17;;
31808;SDS011;18379;48.208;-1.518;2022-09-09T20:52:51;44.63;;;41.70;;
31808;SDS011;18379;48.208;-1.518;2022-09-09T20:57:52;45.00;;;42.23;;
31808;SDS011;18379;48.208;-1.518;2022-09-09T21:02:53;44.57;;;41.63;;
31808;SDS011;18379;48.208;-1.518;2022-09-09T21:07:54;44.07;;;41.47;;
31808;SDS011;18379;48.208;-1.518;2022-09-09T21:12:56;44.13;;;41.43;;
31808;SDS011;18379;48.208;-1.518;2022-09-09T21:17:57;44.40;;;41.67;;
31808;SDS011;18379;48.208;-1.518;2022-09-09T21:22:59;44.73;;;41.93;;
31808;SDS011;18379;48.208;-1.518;2022-09-09T21:28:01;45.90;;;42.73;;
31808;SDS011;18379;48.208;-1.518;2022-09-09T21:33:03;46.83;;;43.63;;
31808;SDS011;18379;48.208;-1.518;2022-09-09T21:38:05;46.53;;;43.20;;
31808;SDS011;18379;48.208;-1.518;2022-09-09T21:43:07;48.03;;;44.40;;
31808;SDS011;18379;48.208;-1.518;2022-09-09T21:48:11;47.17;;;43.80;;
31808;SDS011;18379;48.208;-1.518;2022-09-09T21:53:15;47.47;;;44.03;;
31808;SDS011;18379;48.208;-1.518;2022-09-09T21:58:19;46.10;;;43.03;;
31808;SDS011;18379;48.208;-1.518;2022-09-09T22:03:20;44.03;;;41.30;;
31808;SDS011;18379;48.208;-1.518;2022-09-09T22:08:20;44.83;;;42.07;;
31808;SDS011;18379;48.208;-1.518;2022-09-09T22:13:21;44.70;;;41.70;;
31808;SDS011;18379;48.208;-1.518;2022-09-09T22:18:22;45.17;;;41.90;;
31808;SDS011;18379;48.208;-1.518;2022-09-09T22:23:24;44.33;;;41.43;;
31808;SDS011;18379;48.208;-1.518;2022-09-09T22:28:25;44.33;;;41.37;;
31808;SDS011;18379;48.208;-1.518;2022-09-09T22:33:27;44.97;;;41.97;;
31808;SDS011;18379;48.208;-1.518;2022-09-09T22:38:28;44.90;;;41.87;;
31808;SDS011;18379;48.208;-1.518;2022-09-09T22:43:30;44.93;;;42.13;;
31808;SDS011;18379;48.208;-1.518;2022-09-09T22:48:36;46.53;;;43.40;;
31808;SDS011;18379;48.208;-1.518;2022-09-09T22:53:38;46.97;;;43.77;;
31808;SDS011;18379;48.208;-1.518;2022-09-09T22:58:40;46.40;;;43.27;;
31808;SDS011;18379;48.208;-1.518;2022-09-09T23:03:41;46.83;;;43.70;;
31808;SDS011;18379;48.208;-1.518;2022-09-09T23:08:45;46.27;;;43.13;;
31808;SDS011;18379;48.208;-1.518;2022-09-09T23:13:47;56.30;;;51.67;;
31808;SDS011;18379;48.208;-1.518;2022-09-09T23:18:52;44.03;;;41.43;;
31808;SDS011;18379;48.208;-1.518;2022-09-09T23:23:54;44.23;;;41.50;;
31808;SDS011;18379;48.208;-1.518;2022-09-09T23:28:57;44.70;;;41.83;;
31808;SDS011;18379;48.208;-1.518;2022-09-09T23:33:59;44.43;;;41.47;;
31808;SDS011;18379;48.208;-1.518;2022-09-09T23:39:02;45.53;;;42.47;;
31808;SDS011;18379;48.208;-1.518;2022-09-09T23:44:04;46.80;;;43.50;;
31808;SDS011;18379;48.208;-1.518;2022-09-09T23:49:06;52.47;;;48.50;;
31808;SDS011;18379;48.208;-1.518;2022-09-09T23:54:08;47.73;;;44.53;;
31808;SDS011;18379;48.208;-1.518;2022-09-09T23:59:10;48.53;;;45.10;;
